Time;durP1;ratioP1;P1;durP2;ratioP2;P2;SDS_P1;SDS_P2;PMS_P1;PMS_P2;Temp;Humidity;BMP_temperature;BMP_pressure;BME280_temperature;BME280_humidity;BME280_pressure;Samples;Min_cycle;Max_cycle;Signal;HPM_P1;HPM_P2
2023/09/03 00:03:57;;;;;;;12.85;9.18;;;;;;;17.64;70.85;100809.44;30838023;28;119959;-67
2023/09/03 00:18:57;;;;;;;11.05;9.05;;;;;;;17.32;71.72;100800.97;30837806;28;97337;-81
2023/09/03 00:33:57;;;;;;;11.95;9.80;;;;;;;17.28;72.51;100807.81;30837115;28;97738;-64
2023/09/03 00:48:59;;;;;;;12.38;9.75;;;;;;;17.25;72.79;100815.25;30835227;28;98899;-70
2023/09/03 01:03:59;;;;;;;13.00;9.60;;;;;;;17.16;73.38;100819.13;30834937;28;97217;-69
2023/09/03 01:19:28;;;;;;;11.18;9.35;;;;;;;17.01;73.83;100807.66;30845597;28;98599;-66
2023/09/03 01:34:37;;;;;;;13.10;9.73;;;;;;;16.84;74.04;100799.88;30992481;28;96886;-68
2023/09/03 01:50:15;;;;;;;12.13;9.10;;;;;;;16.73;74.57;100797.69;30973213;28;97121;-76
2023/09/03 02:05:17;;;;;;;11.07;8.70;;;;;;;16.73;74.50;100797.69;30974378;28;97710;-63
2023/09/03 02:20:18;;;;;;;;;;;;;;;16.76;74.67;100802.72;30971940;28;97169;-65
2023/09/03 02:35:18;;;;;;;12.90;9.77;;;;;;;16.50;74.64;100788.03;30970823;28;97695;-77
2023/09/03 02:50:18;;;;;;;17.73;12.23;;;;;;;16.18;75.23;100797.47;30968034;28;97166;-65
2023/09/03 03:05:19;;;;;;;13.20;10.88;;;;;;;15.99;75.92;100802.47;30966363;28;105159;-72
2023/09/03 03:20:20;;;;;;;15.45;9.98;;;;;;;15.83;76.14;100818.84;30964897;28;112622;-78
2023/09/03 03:35:21;;;;;;;15.43;11.03;;;;;;;15.70;76.78;100797.97;30962026;28;97010;-63
2023/09/03 03:50:21;;;;;;;17.48;11.55;;;;;;;15.62;77.39;100814.19;30960065;28;104169;-72
2023/09/03 04:05:22;;;;;;;15.93;11.43;;;;;;;15.48;77.70;100805.97;30960508;28;96748;-64
2023/09/03 04:20:23;;;;;;;16.23;11.00;;;;;;;15.43;77.67;100813.75;30957589;28;97281;-71
2023/09/03 04:35:23;;;;;;;14.63;12.07;;;;;;;15.49;78.24;100813.03;30959255;28;97013;-72
2023/09/03 04:50:25;;;;;;;15.05;10.90;;;;;;;15.65;77.94;100829.94;30961438;28;105001;-73
2023/09/03 05:05:25;;;;;;;13.27;10.00;;;;;;;15.87;78.36;100837.06;30976417;28;96994;-63
2023/09/03 05:20:26;;;;;;;11.63;8.60;;;;;;;16.37;77.68;100857.81;30971938;28;97552;-74
2023/09/03 05:35:26;;;;;;;11.35;8.32;;;;;;;16.90;76.76;100868.25;30971220;28;105694;-71
2023/09/03 05:50:30;;;;;;;11.90;8.80;;;;;;;17.12;76.35;100869.03;30970865;28;104577;-66
2023/09/03 06:05:30;;;;;;;10.57;8.27;;;;;;;17.57;75.84;100882.94;30969379;28;96756;-75
2023/09/03 06:20:37;;;;;;;9.82;7.70;;;;;;;18.29;75.05;100892.56;30965138;28;117887;-72
2023/09/03 06:35:37;;;;;;;9.20;6.80;;;;;;;19.57;73.60;100916.66;30965973;28;97637;-63
2023/09/03 06:50:41;;;;;;;8.77;6.40;;;;;;;21.04;69.96;100922.34;30966019;28;97282;-67
2023/09/03 07:05:41;;;;;;;7.37;5.93;;;;;;;21.29;67.71;100914.16;30964222;28;97661;-63
2023/09/03 07:20:41;;;;;;;6.10;4.80;;;;;;;22.21;65.01;100928.78;30962875;28;102165;-71
2023/09/03 07:35:42;;;;;;;6.05;4.70;;;;;;;23.23;62.93;100944.16;30961734;28;110366;-63
2023/09/03 07:50:42;;;;;;;6.10;4.85;;;;;;;24.28;59.61;100957.81;30958626;28;105822;-62
2023/09/03 08:05:42;;;;;;;8.30;3.83;;;;;;;25.54;55.28;100960.47;30956583;28;106545;-70
2023/09/03 08:20:43;;;;;;;7.47;3.58;;;;;;;27.14;50.79;100959.44;30957762;28;103391;-66
2023/09/03 08:35:44;;;;;;;6.30;3.72;;;;;;;28.94;45.42;100954.66;30980687;28;97209;-72
2023/09/03 08:50:44;;;;;;;4.60;3.08;;;;;;;29.20;41.19;100952.69;30978902;28;97394;-72
2023/09/03 09:05:47;;;;;;;3.75;2.40;;;;;;;28.16;41.90;100969.34;30977019;28;97260;-66
2023/09/03 09:20:50;;;;;;;4.00;2.70;;;;;;;29.21;40.44;100980.94;30974577;28;97196;-64
2023/09/03 09:35:51;;;;;;;4.83;2.80;;;;;;;33.59;33.68;100968.25;30970389;28;97726;-74
2023/09/03 09:50:51;;;;;;;3.75;2.63;;;;;;;30.77;35.46;100971.78;30971192;28;97470;-66
2023/09/03 10:05:52;;;;;;;4.00;2.38;;;;;;;29.89;36.37;100971.47;30970160;28;97302;-63
2023/09/03 10:20:55;;;;;;;3.78;2.47;;;;;;;30.03;35.93;100967.03;30968597;28;97017;-67
2023/09/03 10:36:15;;;;;;;3.10;2.20;;;;;;;34.87;29.34;100980.34;30968224;28;97490;-67
2023/09/03 10:51:33;;;;;;;2.97;2.00;;;;;;;34.28;28.87;100983.91;30965594;28;97007;-77
2023/09/03 11:06:36;;;;;;;2.50;1.70;;;;;;;30.67;32.46;100971.88;30965128;28;97584;-72
2023/09/03 11:21:37;;;;;;;3.20;1.60;;;;;;;35.31;27.43;100978.63;30962381;28;97276;-70
2023/09/03 11:36:38;;;;;;;2.97;1.60;;;;;;;35.14;26.13;100976.59;30960205;28;97583;-65
2023/09/03 11:51:40;;;;;;;2.03;1.33;;;;;;;35.46;24.99;100971.03;30959761;28;97291;-68
2023/09/03 12:06:42;;;;;;;2.60;1.60;;;;;;;35.14;25.34;100965.50;30959041;28;97688;-65
2023/09/03 12:21:44;;;;;;;2.73;1.40;;;;;;;33.18;25.93;100975.34;30959686;28;97646;-64
2023/09/03 12:36:56;;;;;;;2.97;1.70;;;;;;;33.07;26.87;100969.19;30961619;28;97330;-72
2023/09/03 12:51:57;;;;;;;2.53;1.50;;;;;;;31.25;27.87;100976.63;30957064;28;97143;-67
2023/09/03 13:06:58;;;;;;;2.17;1.67;;;;;;;30.23;28.71;100981.75;30954513;28;97713;-66
2023/09/03 13:21:58;;;;;;;3.42;1.38;;;;;;;29.12;30.26;100986.16;30973760;28;97241;-70
2023/09/03 13:36:59;;;;;;;4.38;1.70;;;;;;;28.53;31.28;100971.88;30973430;28;97429;-68
2023/09/03 13:51:59;;;;;;;2.55;1.90;;;;;;;27.84;32.21;100982.06;30971213;28;97644;-67
2023/09/03 14:07:00;;;;;;;3.50;1.27;;;;;;;26.94;33.51;100981.97;30970595;28;96954;-63
2023/09/03 14:22:03;;;;;;;2.53;1.40;;;;;;;26.53;33.89;100990.59;30967445;28;97389;-65
2023/09/03 14:37:03;;;;;;;2.60;1.53;;;;;;;25.88;35.35;101001.31;30967972;28;97158;-65
2023/09/03 14:52:05;;;;;;;2.15;1.38;;;;;;;25.14;36.50;100995.03;30966308;28;97097;-67
2023/09/03 15:07:05;;;;;;;2.80;1.50;;;;;;;24.41;37.61;100991.25;30964721;28;96800;-62
2023/09/03 15:22:06;;;;;;;3.65;1.80;;;;;;;24.05;38.77;100996.00;30964134;28;96979;-63
2023/09/03 15:37:06;;;;;;;3.75;1.80;;;;;;;23.32;40.09;101007.97;30962745;28;98020;-79
2023/09/03 15:52:07;;;;;;;3.47;2.22;;;;;;;23.10;41.66;101013.13;30960841;28;97768;-68
2023/09/03 16:07:08;;;;;;;4.33;2.10;;;;;;;22.43;42.99;101032.25;30959788;28;97744;-68
2023/09/03 16:22:09;;;;;;;;;;;;;;;22.06;44.01;101034.97;30958099;28;97141;-64
2023/09/03 16:37:09;;;;;;;4.45;2.30;;;;;;;21.54;45.29;101046.16;30958193;28;97217;-64
2023/09/03 16:52:10;;;;;;;4.35;2.33;;;;;;;21.12;47.08;101043.97;30971749;28;97293;-66
2023/09/03 17:07:11;;;;;;;5.03;2.20;;;;;;;20.56;47.86;101065.28;30976198;28;97286;-75
2023/09/03 17:22:11;;;;;;;3.47;1.80;;;;;;;20.06;48.25;101068.56;30975897;28;97330;-69
2023/09/03 17:37:11;;;;;;;4.07;2.10;;;;;;;19.69;49.11;101094.41;30974508;28;97408;-69
2023/09/03 17:52:12;;;;;;;3.77;2.00;;;;;;;19.31;49.92;101114.75;30972703;28;97353;-71
2023/09/03 18:07:12;;;;;;;4.75;1.70;;;;;;;18.98;50.81;101144.38;30975056;28;96698;-75
2023/09/03 18:22:12;;;;;;;3.40;1.95;;;;;;;18.67;51.99;101160.00;30973461;28;96807;-64
2023/09/03 18:37:13;;;;;;;4.60;2.08;;;;;;;18.56;52.85;101184.84;30970367;28;97197;-70
2023/09/03 18:52:13;;;;;;;4.00;2.05;;;;;;;18.46;53.56;101200.56;30966612;28;97457;-71
2023/09/03 19:07:14;;;;;;;8.65;3.97;;;;;;;18.29;54.40;101194.63;30965243;28;96624;-70
2023/09/03 19:22:14;;;;;;;7.35;4.13;;;;;;;18.05;55.86;101192.19;30964323;28;96704;-77
2023/09/03 19:37:15;;;;;;;6.35;2.83;;;;;;;17.93;56.16;101201.81;30963295;28;99492;-66
2023/09/03 19:52:16;;;;;;;4.57;2.80;;;;;;;17.77;57.05;101221.78;30958939;28;96770;-75
2023/09/03 20:07:19;;;;;;;;;;;;;;;17.67;57.87;101214.00;30959816;28;96679;-80
2023/09/03 20:22:19;;;;;;;;;;;;;;;17.55;58.36;101231.69;30971579;28;97371;-77
2023/09/03 20:37:21;;;;;;;5.10;3.60;;;;;;;17.33;58.86;101211.97;30984279;28;96687;-70
2023/09/03 20:52:21;;;;;;;6.67;3.43;;;;;;;17.23;59.52;101233.81;30979437;28;97159;-69
2023/09/03 21:07:22;;;;;;;5.35;3.72;;;;;;;17.12;60.04;101213.59;30978676;28;96858;-63
2023/09/03 21:22:22;;;;;;;4.68;3.42;;;;;;;17.01;60.56;101224.88;30977043;28;97357;-66
2023/09/03 21:37:23;;;;;;;5.57;3.20;;;;;;;16.79;61.00;101221.22;30972796;28;96840;-77
2023/09/03 21:52:24;;;;;;;6.07;3.53;;;;;;;16.68;61.83;101241.38;30973193;28;97548;-77
2023/09/03 22:07:24;;;;;;;8.00;3.80;;;;;;;16.64;62.20;101250.81;30972646;28;97297;-77
2023/09/03 22:22:25;;;;;;;4.97;3.15;;;;;;;16.66;62.65;101276.53;30971334;28;97273;-80
2023/09/03 22:37:26;;;;;;;5.90;3.03;;;;;;;16.67;63.03;101290.81;30970279;28;97384;-65
2023/09/03 22:52:26;;;;;;;6.05;3.17;;;;;;;16.63;63.07;101286.81;30967807;28;97115;-70
2023/09/03 23:07:27;;;;;;;4.07;2.90;;;;;;;16.58;63.36;101285.50;30966311;28;97041;-75
2023/09/03 23:22:27;;;;;;;4.93;2.72;;;;;;;16.64;63.37;101277.72;30964622;28;97194;-74
2023/09/03 23:37:28;;;;;;;6.30;2.70;;;;;;;16.53;63.87;101277.13;30966482;28;96828;-64
2023/09/03 23:52:28;;;;;;;5.85;2.53;;;;;;;16.41;64.13;101286.66;30962684;28;97066;-69
